Skip to main content.
 TIME   TEMPERATURE   WINDSPEED   DIRECTION   HUMIDITY   BAROMETER   RAINFALL 
6:05 22.6°C (72.7°F) 5.6 kmh (3.5 mph) N 84% 1014.0hPa (29.94 inHg) 16.0mm (0.63 in.)
5:05 22.6°C (72.7 °F) 0.0 kmh (0.0 mph) NE 84% 1014.0hPa (29.94 inHg) 16.0mm (0.63 in.)
4:05 22.6°C (72.7 °F) 0.0 kmh (0.0 mph) ENE 84% 1015.0hPa (29.97 inHg) 16.0mm (0.63 in.)
3:05 22.6°C (72.7 °F) 11.1 kmh (6.9 mph) W 84% 1015.0hPa (29.97 inHg) 16.0mm (0.63 in.)
2:05 22.6°C (72.7 °F) 0.0 kmh (0.0 mph) W 84% 1015.0hPa (29.97 inHg) 16.0mm (0.63 in.)
1:05 22.7°C (72.9 °F) 0.0 kmh (0.0 mph) NNE 84% 1015.0hPa (29.97 inHg) 16.0mm (0.63 in.)
12:05 22.6°C (72.7 °F) 0.0 kmh (0.0 mph) W 84% 1016.0hPa (30.00 inHg) 16.0mm (0.63 in.)
11:05 22.7°C (72.9 °F) 0.0 kmh (0.0 mph) N 83% 1016.0hPa (30.00 inHg) 16.0mm (0.63 in.)
10:05 22.6°C (72.7 °F) 0.0 kmh (0.0 mph) NNW 81% 1016.0hPa (30.00 inHg) 16.0mm (0.63 in.)
9:05 22.7°C (72.9 °F) 11.1 kmh (6.9 mph) NNW 81% 1016.0hPa (30.00 inHg) 16.0mm (0.63 in.)
8:05 22.5°C (72.5 °F) 0.0 kmh (0.0 mph) NNW 82% 1016.0hPa (30.00 inHg) 16.0mm (0.63 in.)
7:05 22.7°C (72.9 °F) 13.0 kmh (8.1 mph) NNW 84% 1015.0hPa (29.97 inHg) 16.0mm (0.63 in.)
6:05 22.6°C (72.7 °F) 16.7 kmh (10.4 mph) NNW 86% 1015.0hPa (29.97 inHg) 16.0mm (0.63 in.)
5:05 22.5°C (72.5 °F) 20.4 kmh (12.7 mph) NNW 88% 1015.0hPa (29.97 inHg) 16.0mm (0.63 in.)
4:05 20.9°C (69.6 °F) 24.1 kmh (15.0 mph) NNW 88% 1015.0hPa (29.97 inHg) 16.0mm (0.63 in.)
3:05 20.7°C (69.3 °F) 16.7 kmh (10.4 mph) NW 88% 1015.0hPa (29.97 inHg) 16.0mm (0.63 in.)
2:05 20.0°C (68.0 °F) 13.0 kmh (8.1 mph) NNW 87% 1016.0hPa (30.00 inHg) 16.0mm (0.63 in.)
1:05 19.2°C (66.6 °F) 11.1 kmh (6.9 mph) NW 86% 1016.0hPa (30.00 inHg) 16.0mm (0.63 in.)
12:05 18.9°C (66.0 °F) 0.0 kmh (0.0 mph) WNW 83% 1019.0hPa (30.09 inHg) 16.0mm (0.63 in.)
11:05 19.7°C (67.5 °F) 33.3 kmh (20.7 mph) NNE 78% 1019.0hPa (30.09 inHg) 13.0mm (0.51 in.)
10:05 22.4°C (72.3 °F) 48.2 kmh (29.9 mph) NE 69% 1018.0hPa (30.06 inHg) 0.0mm (0.00 in.)
9:05 22.6°C (72.7 °F) 16.7 kmh (10.4 mph) NNW 67% 1016.0hPa (30.00 inHg) 0.0mm (0.00 in.)
8:05 22.5°C (72.5 °F) 14.8 kmh (9.2 mph) NNW 66% 1016.0hPa (30.00 inHg) 0.0mm (0.00 in.)
7:05 22.7°C (72.9 °F) 18.5 kmh (11.5 mph) N 66% 1016.0hPa (30.00 inHg) 0.0mm (0.00 in.)